sensor_id;sensor_type;location;lat;lon;timestamp;pressure;altitude;pressure_sealevel;temperature;humidity
76940;BME280;65885;55.848;35.916;2023-05-01T00:02:25;98475.47;;;9.66;48.48
76940;BME280;65885;55.848;35.916;2023-05-01T00:04:52;98467.72;;;9.80;47.91
76940;BME280;65885;55.848;35.916;2023-05-01T00:07:21;98462.78;;;9.91;47.50
76940;BME280;65885;55.848;35.916;2023-05-01T00:09:50;98467.75;;;9.96;47.40
76940;BME280;65885;55.848;35.916;2023-05-01T00:12:17;98460.91;;;9.93;47.51
76940;BME280;65885;55.848;35.916;2023-05-01T00:14:45;98461.22;;;9.87;47.85
76940;BME280;65885;55.848;35.916;2023-05-01T00:17:12;98472.88;;;9.82;47.76
76940;BME280;65885;55.848;35.916;2023-05-01T00:19:40;98475.75;;;9.77;48.04
76940;BME280;65885;55.848;35.916;2023-05-01T00:22:08;98463.84;;;9.71;48.07
76940;BME280;65885;55.848;35.916;2023-05-01T00:24:36;98463.22;;;9.66;48.56
76940;BME280;65885;55.848;35.916;2023-05-01T00:27:04;98455.63;;;9.62;48.27
76940;BME280;65885;55.848;35.916;2023-05-01T00:29:31;98461.09;;;9.57;48.42
76940;BME280;65885;55.848;35.916;2023-05-01T00:31:58;98461.38;;;9.53;48.53
76940;BME280;65885;55.848;35.916;2023-05-01T00:34:26;98456.19;;;9.51;48.08
76940;BME280;65885;55.848;35.916;2023-05-01T00:36:53;98458.16;;;9.48;48.25
76940;BME280;65885;55.848;35.916;2023-05-01T00:39:21;98456.53;;;9.45;47.85
76940;BME280;65885;55.848;35.916;2023-05-01T00:41:50;98450.53;;;9.43;48.36
76940;BME280;65885;55.848;35.916;2023-05-01T00:44:17;98461.16;;;9.40;48.44
76940;BME280;65885;55.848;35.916;2023-05-01T00:46:45;98466.53;;;9.37;48.46
76940;BME280;65885;55.848;35.916;2023-05-01T00:49:12;98457.09;;;9.34;48.15
76940;BME280;65885;55.848;35.916;2023-05-01T00:51:40;98471.09;;;9.33;48.40
76940;BME280;65885;55.848;35.916;2023-05-01T00:54:09;98475.50;;;9.33;48.59
76940;BME280;65885;55.848;35.916;2023-05-01T00:56:36;98472.97;;;9.31;48.43
76940;BME280;65885;55.848;35.916;2023-05-01T00:59:05;98468.66;;;9.30;48.11
76940;BME280;65885;55.848;35.916;2023-05-01T01:01:33;98473.94;;;9.29;48.39
76940;BME280;65885;55.848;35.916;2023-05-01T01:04:01;98460.09;;;9.27;49.21
76940;BME280;65885;55.848;35.916;2023-05-01T01:06:33;98452.34;;;9.25;49.54
76940;BME280;65885;55.848;35.916;2023-05-01T01:09:14;98459.50;;;9.22;49.35
76940;BME280;65885;55.848;35.916;2023-05-01T01:11:49;98459.56;;;9.20;48.97
76940;BME280;65885;55.848;35.916;2023-05-01T01:14:25;98460.50;;;9.19;48.84
76940;BME280;65885;55.848;35.916;2023-05-01T01:16:56;98457.13;;;9.17;48.94
76940;BME280;65885;55.848;35.916;2023-05-01T01:19:49;98461.44;;;9.18;48.78
76940;BME280;65885;55.848;35.916;2023-05-01T01:22:26;98464.50;;;9.26;48.55
76940;BME280;65885;55.848;35.916;2023-05-01T01:25:28;98457.78;;;9.38;48.52
76940;BME280;65885;55.848;35.916;2023-05-01T01:28:14;98462.28;;;9.52;47.67
76940;BME280;65885;55.848;35.916;2023-05-01T01:31:13;98468.47;;;9.66;47.63
76940;BME280;65885;55.848;35.916;2023-05-01T01:34:03;98469.69;;;9.77;47.44
76940;BME280;65885;55.848;35.916;2023-05-01T01:36:40;98463.66;;;9.74;47.34
76940;BME280;65885;55.848;35.916;2023-05-01T01:39:14;98474.41;;;9.70;47.39
76940;BME280;65885;55.848;35.916;2023-05-01T01:41:50;98467.78;;;9.63;47.64
76940;BME280;65885;55.848;35.916;2023-05-01T01:44:21;98463.91;;;9.54;47.87
76940;BME280;65885;55.848;35.916;2023-05-01T01:46:53;98459.91;;;9.47;48.91
76940;BME280;65885;55.848;35.916;2023-05-01T01:49:25;98451.72;;;9.37;49.30
76940;BME280;65885;55.848;35.916;2023-05-01T01:51:55;98448.63;;;9.29;49.37
76940;BME280;65885;55.848;35.916;2023-05-01T01:54:30;98445.41;;;9.24;49.02
76940;BME280;65885;55.848;35.916;2023-05-01T01:57:00;98445.56;;;9.21;48.73
76940;BME280;65885;55.848;35.916;2023-05-01T01:59:31;98442.19;;;9.19;48.89
76940;BME280;65885;55.848;35.916;2023-05-01T02:02:01;98449.28;;;9.17;49.24
76940;BME280;65885;55.848;35.916;2023-05-01T02:04:32;98455.59;;;9.13;49.26
76940;BME280;65885;55.848;35.916;2023-05-01T02:07:00;98446.13;;;9.10;49.34
76940;BME280;65885;55.848;35.916;2023-05-01T02:09:29;98439.31;;;9.08;49.68
76940;BME280;65885;55.848;35.916;2023-05-01T02:11:57;98427.19;;;9.05;49.40
76940;BME280;65885;55.848;35.916;2023-05-01T02:14:26;98440.44;;;9.02;49.60
76940;BME280;65885;55.848;35.916;2023-05-01T02:16:55;98441.53;;;8.98;49.21
76940;BME280;65885;55.848;35.916;2023-05-01T02:19:23;98431.22;;;8.95;49.25
76940;BME280;65885;55.848;35.916;2023-05-01T02:21:56;98418.31;;;8.92;49.65
76940;BME280;65885;55.848;35.916;2023-05-01T02:24:24;98425.47;;;8.88;50.37
76940;BME280;65885;55.848;35.916;2023-05-01T02:26:56;98424.69;;;8.86;50.43
76940;BME280;65885;55.848;35.916;2023-05-01T02:29:26;98427.47;;;8.83;50.35
76940;BME280;65885;55.848;35.916;2023-05-01T02:31:53;98431.00;;;8.82;50.53
76940;BME280;65885;55.848;35.916;2023-05-01T02:34:21;98428.47;;;8.81;50.47
76940;BME280;65885;55.848;35.916;2023-05-01T02:36:49;98424.16;;;8.80;50.56
76940;BME280;65885;55.848;35.916;2023-05-01T02:39:17;98413.78;;;8.78;50.34
76940;BME280;65885;55.848;35.916;2023-05-01T02:41:46;98416.41;;;8.78;49.76
76940;BME280;65885;55.848;35.916;2023-05-01T02:44:15;98425.19;;;8.77;49.75
76940;BME280;65885;55.848;35.916;2023-05-01T02:46:46;98422.63;;;8.76;50.04
76940;BME280;65885;55.848;35.916;2023-05-01T02:49:14;98415.69;;;8.75;50.10
76940;BME280;65885;55.848;35.916;2023-05-01T02:51:44;98411.47;;;8.72;50.30
76940;BME280;65885;55.848;35.916;2023-05-01T02:54:12;98425.41;;;8.73;50.14
76940;BME280;65885;55.848;35.916;2023-05-01T02:56:42;98421.94;;;8.72;49.76
76940;BME280;65885;55.848;35.916;2023-05-01T02:59:09;98427.09;;;8.74;50.73
76940;BME280;65885;55.848;35.916;2023-05-01T03:01:37;98421.00;;;8.73;50.44
76940;BME280;65885;55.848;35.916;2023-05-01T03:04:04;98424.38;;;8.75;50.43
76940;BME280;65885;55.848;35.916;2023-05-01T03:06:32;98425.22;;;8.76;50.62
76940;BME280;65885;55.848;35.916;2023-05-01T03:09:00;98423.31;;;8.79;51.00
76940;BME280;65885;55.848;35.916;2023-05-01T03:11:27;98418.94;;;8.80;50.54
76940;BME280;65885;55.848;35.916;2023-05-01T03:13:56;98416.00;;;8.86;50.94
76940;BME280;65885;55.848;35.916;2023-05-01T03:16:24;98422.22;;;9.01;50.84
76940;BME280;65885;55.848;35.916;2023-05-01T03:18:51;98406.41;;;9.20;50.14
76940;BME280;65885;55.848;35.916;2023-05-01T03:21:19;98406.03;;;9.43;50.45
76940;BME280;65885;55.848;35.916;2023-05-01T03:23:47;98410.22;;;9.63;50.37
76940;BME280;65885;55.848;35.916;2023-05-01T03:26:15;98417.81;;;9.83;49.52
76940;BME280;65885;55.848;35.916;2023-05-01T03:28:42;98425.41;;;10.04;49.24
76940;BME280;65885;55.848;35.916;2023-05-01T03:31:11;98448.22;;;10.17;48.73
76940;BME280;65885;55.848;35.916;2023-05-01T03:33:39;98451.38;;;10.24;48.56
76940;BME280;65885;55.848;35.916;2023-05-01T03:36:07;98441.84;;;10.23;48.74
76940;BME280;65885;55.848;35.916;2023-05-01T03:38:36;98446.34;;;10.19;48.69
76940;BME280;65885;55.848;35.916;2023-05-01T03:41:03;98459.72;;;10.15;48.90
76940;BME280;65885;55.848;35.916;2023-05-01T03:43:31;98474.09;;;10.08;49.13
76940;BME280;65885;55.848;35.916;2023-05-01T03:45:58;98475.19;;;10.04;49.12
76940;BME280;65885;55.848;35.916;2023-05-01T03:48:28;98486.69;;;10.01;49.26
76940;BME280;65885;55.848;35.916;2023-05-01T03:50:55;98501.56;;;10.00;49.29
76940;BME280;65885;55.848;35.916;2023-05-01T03:53:23;98500.63;;;10.01;49.40
76940;BME280;65885;55.848;35.916;2023-05-01T03:55:50;98503.75;;;10.08;49.58
76940;BME280;65885;55.848;35.916;2023-05-01T03:58:18;98498.94;;;10.16;49.55
76940;BME280;65885;55.848;35.916;2023-05-01T04:00:46;98497.75;;;10.22;49.33
76940;BME280;65885;55.848;35.916;2023-05-01T04:03:15;98511.47;;;10.27;49.54
76940;BME280;65885;55.848;35.916;2023-05-01T04:05:44;98509.63;;;10.29;49.76
76940;BME280;65885;55.848;35.916;2023-05-01T04:08:12;98503.59;;;10.27;49.56
76940;BME280;65885;55.848;35.916;2023-05-01T04:10:39;98509.78;;;10.26;49.94
76940;BME280;65885;55.848;35.916;2023-05-01T04:13:06;98515.19;;;10.23;50.11
76940;BME280;65885;55.848;35.916;2023-05-01T04:15:34;98506.50;;;10.22;50.36
76940;BME280;65885;55.848;35.916;2023-05-01T04:18:01;98519.66;;;10.21;50.65
76940;BME280;65885;55.848;35.916;2023-05-01T04:20:28;98519.72;;;10.19;50.52
76940;BME280;65885;55.848;35.916;2023-05-01T04:22:58;98518.03;;;10.18;50.62
76940;BME280;65885;55.848;35.916;2023-05-01T04:25:25;98525.03;;;10.18;50.75
76940;BME280;65885;55.848;35.916;2023-05-01T04:27:53;98532.16;;;10.16;50.80
76940;BME280;65885;55.848;35.916;2023-05-01T04:30:22;98536.78;;;10.11;50.95
76940;BME280;65885;55.848;35.916;2023-05-01T04:32:49;98534.25;;;10.09;51.12
76940;BME280;65885;55.848;35.916;2023-05-01T04:35:17;98546.59;;;10.07;51.69
76940;BME280;65885;55.848;35.916;2023-05-01T04:37:44;98544.06;;;10.06;51.75
76940;BME280;65885;55.848;35.916;2023-05-01T04:40:13;98545.91;;;10.04;51.61
76940;BME280;65885;55.848;35.916;2023-05-01T04:42:41;98552.91;;;10.03;51.56
76940;BME280;65885;55.848;35.916;2023-05-01T04:45:09;98565.94;;;10.05;51.52
76940;BME280;65885;55.848;35.916;2023-05-01T04:47:36;98565.88;;;10.06;51.67
76940;BME280;65885;55.848;35.916;2023-05-01T04:50:05;98568.09;;;10.14;51.69
76940;BME280;65885;55.848;35.916;2023-05-01T04:52:32;98569.22;;;10.25;51.54
76940;BME280;65885;55.848;35.916;2023-05-01T04:55:00;98577.88;;;10.43;51.31
76940;BME280;65885;55.848;35.916;2023-05-01T04:57:31;98574.31;;;10.60;51.26
76940;BME280;65885;55.848;35.916;2023-05-01T04:59:59;98567.94;;;10.80;50.65
76940;BME280;65885;55.848;35.916;2023-05-01T05:02:30;98571.22;;;10.99;50.43
76940;BME280;65885;55.848;35.916;2023-05-01T05:04:57;98575.56;;;11.15;49.78
76940;BME280;65885;55.848;35.916;2023-05-01T05:07:25;98569.03;;;11.22;49.89
76940;BME280;65885;55.848;35.916;2023-05-01T05:09:52;98577.00;;;11.20;49.48
76940;BME280;65885;55.848;35.916;2023-05-01T05:12:20;98569.38;;;11.16;49.91
76940;BME280;65885;55.848;35.916;2023-05-01T05:14:49;98566.28;;;11.09;50.16
76940;BME280;65885;55.848;35.916;2023-05-01T05:17:16;98564.78;;;11.05;50.01
76940;BME280;65885;55.848;35.916;2023-05-01T05:19:44;98572.16;;;10.98;50.35
76940;BME280;65885;55.848;35.916;2023-05-01T05:22:12;98580.34;;;10.92;50.60
76940;BME280;65885;55.848;35.916;2023-05-01T05:24:39;98583.16;;;10.89;51.02
76940;BME280;65885;55.848;35.916;2023-05-01T05:27:06;98578.91;;;10.87;50.75
76940;BME280;65885;55.848;35.916;2023-05-01T05:29:34;98582.38;;;10.87;50.89
76940;BME280;65885;55.848;35.916;2023-05-01T05:32:03;98591.94;;;10.88;51.21
76940;BME280;65885;55.848;35.916;2023-05-01T05:34:31;98591.03;;;10.89;51.20
76940;BME280;65885;55.848;35.916;2023-05-01T05:36:58;98597.78;;;10.93;51.52
76940;BME280;65885;55.848;35.916;2023-05-01T05:39:26;98598.63;;;10.94;51.62
76940;BME280;65885;55.848;35.916;2023-05-01T05:41:53;98591.59;;;10.94;51.56
76940;BME280;65885;55.848;35.916;2023-05-01T05:44:21;98596.69;;;10.97;51.63
76940;BME280;65885;55.848;35.916;2023-05-01T05:46:48;98600.72;;;11.03;51.67
76940;BME280;65885;55.848;35.916;2023-05-01T05:49:18;98606.66;;;11.06;51.44
76940;BME280;65885;55.848;35.916;2023-05-01T05:51:45;98605.63;;;11.09;51.62
76940;BME280;65885;55.848;35.916;2023-05-01T05:54:12;98608.16;;;11.10;51.58
76940;BME280;65885;55.848;35.916;2023-05-01T05:56:40;98603.69;;;11.13;51.77
76940;BME280;65885;55.848;35.916;2023-05-01T05:59:08;98606.81;;;11.19;51.59
76940;BME280;65885;55.848;35.916;2023-05-01T06:01:35;98604.66;;;11.26;51.69
76940;BME280;65885;55.848;35.916;2023-05-01T06:04:04;98597.28;;;11.32;51.77
76940;BME280;65885;55.848;35.916;2023-05-01T06:06:33;98602.19;;;11.38;51.73
76940;BME280;65885;55.848;35.916;2023-05-01T06:09:02;98606.13;;;11.46;51.47
76940;BME280;65885;55.848;35.916;2023-05-01T06:11:29;98607.56;;;11.51;51.72
76940;BME280;65885;55.848;35.916;2023-05-01T06:13:57;98612.38;;;11.59;51.31
76940;BME280;65885;55.848;35.916;2023-05-01T06:16:25;98611.22;;;11.63;51.15
76940;BME280;65885;55.848;35.916;2023-05-01T06:18:52;98620.72;;;11.65;50.69
76940;BME280;65885;55.848;35.916;2023-05-01T06:21:20;98619.78;;;11.66;50.71
76940;BME280;65885;55.848;35.916;2023-05-01T06:23:49;98632.09;;;11.66;50.85
76940;BME280;65885;55.848;35.916;2023-05-01T06:26:17;98630.47;;;11.63;50.58
76940;BME280;65885;55.848;35.916;2023-05-01T06:28:44;98635.91;;;11.60;50.82
76940;BME280;65885;55.848;35.916;2023-05-01T06:31:11;98642.19;;;11.58;50.54
76940;BME280;65885;55.848;35.916;2023-05-01T06:33:39;98634.56;;;11.53;50.87
76940;BME280;65885;55.848;35.916;2023-05-01T06:36:06;98631.34;;;11.48;51.18
76940;BME280;65885;55.848;35.916;2023-05-01T06:38:34;98630.16;;;11.54;51.46
76940;BME280;65885;55.848;35.916;2023-05-01T06:41:03;98634.63;;;11.67;51.27
76940;BME280;65885;55.848;35.916;2023-05-01T06:43:31;98641.63;;;11.83;50.86
76940;BME280;65885;55.848;35.916;2023-05-01T06:45:59;98647.66;;;11.99;50.28
76940;BME280;65885;55.848;35.916;2023-05-01T06:48:27;98650.66;;;12.07;49.95
76940;BME280;65885;55.848;35.916;2023-05-01T06:50:55;98655.16;;;12.05;50.08
76940;BME280;65885;55.848;35.916;2023-05-01T06:53:22;98660.03;;;11.97;50.03
76940;BME280;65885;55.848;35.916;2023-05-01T06:55:50;98667.03;;;11.82;49.76
76940;BME280;65885;55.848;35.916;2023-05-01T06:58:19;98660.69;;;11.71;50.08
76940;BME280;65885;55.848;35.916;2023-05-01T07:00:47;98675.41;;;11.59;50.65
76940;BME280;65885;55.848;35.916;2023-05-01T07:03:14;98672.47;;;11.49;51.16
76940;BME280;65885;55.848;35.916;2023-05-01T07:05:41;98676.53;;;11.39;51.10
76940;BME280;65885;55.848;35.916;2023-05-01T07:08:09;98690.28;;;11.28;51.48
76940;BME280;65885;55.848;35.916;2023-05-01T07:10:37;98679.81;;;11.13;51.39
76940;BME280;65885;55.848;35.916;2023-05-01T07:13:04;98680.66;;;10.97;51.43
76940;BME280;65885;55.848;35.916;2023-05-01T07:15:34;98705.69;;;10.87;51.59
76940;BME280;65885;55.848;35.916;2023-05-01T07:18:01;98700.84;;;10.79;51.74
76940;BME280;65885;55.848;35.916;2023-05-01T07:20:30;98705.44;;;10.76;51.92
76940;BME280;65885;55.848;35.916;2023-05-01T07:22:58;98708.72;;;10.79;51.92
76940;BME280;65885;55.848;35.916;2023-05-01T07:25:26;98715.59;;;10.82;51.93
76940;BME280;65885;55.848;35.916;2023-05-01T07:27:53;98716.34;;;10.84;51.94
76940;BME280;65885;55.848;35.916;2023-05-01T07:30:20;98723.47;;;10.82;51.95
76940;BME280;65885;55.848;35.916;2023-05-01T07:32:50;98724.72;;;10.75;51.83
76940;BME280;65885;55.848;35.916;2023-05-01T07:35:19;98739.09;;;10.68;51.82
76940;BME280;65885;55.848;35.916;2023-05-01T07:37:49;98735.34;;;10.56;51.86
76940;BME280;65885;55.848;35.916;2023-05-01T07:40:19;98750.09;;;10.41;51.90
76940;BME280;65885;55.848;35.916;2023-05-01T07:42:47;98763.06;;;10.27;52.19
76940;BME280;65885;55.848;35.916;2023-05-01T07:45:15;98762.09;;;10.11;52.37
76940;BME280;65885;55.848;35.916;2023-05-01T07:47:43;98775.97;;;9.95;52.57
76940;BME280;65885;55.848;35.916;2023-05-01T07:50:12;98777.50;;;9.82;52.57
76940;BME280;65885;55.848;35.916;2023-05-01T07:52:41;98771.03;;;9.72;53.07
76940;BME280;65885;55.848;35.916;2023-05-01T07:55:09;98770.63;;;9.62;53.68
76940;BME280;65885;55.848;35.916;2023-05-01T07:57:37;98772.84;;;9.53;53.25
76940;BME280;65885;55.848;35.916;2023-05-01T08:00:06;98779.31;;;9.45;53.77
76940;BME280;65885;55.848;35.916;2023-05-01T08:02:36;98780.50;;;9.38;53.63
76940;BME280;65885;55.848;35.916;2023-05-01T08:05:05;98779.78;;;9.35;54.05
76940;BME280;65885;55.848;35.916;2023-05-01T08:07:38;98794.00;;;9.29;54.42
76940;BME280;65885;55.848;35.916;2023-05-01T08:10:06;98788.78;;;9.29;54.29
76940;BME280;65885;55.848;35.916;2023-05-01T08:12:35;98790.53;;;9.29;54.62
76940;BME280;65885;55.848;35.916;2023-05-01T08:15:04;98801.09;;;9.27;54.37
76940;BME280;65885;55.848;35.916;2023-05-01T08:17:33;98801.31;;;9.23;54.61
76940;BME280;65885;55.848;35.916;2023-05-01T08:20:03;98808.16;;;9.25;54.66
76940;BME280;65885;55.848;35.916;2023-05-01T08:22:32;98806.59;;;9.21;54.72
76940;BME280;65885;55.848;35.916;2023-05-01T08:25:01;98813.94;;;9.13;55.26
76940;BME280;65885;55.848;35.916;2023-05-01T08:27:31;98815.03;;;9.09;54.94
76940;BME280;65885;55.848;35.916;2023-05-01T08:30:03;98832.50;;;9.08;55.36
76940;BME280;65885;55.848;35.916;2023-05-01T08:32:32;98837.78;;;9.07;55.22
76940;BME280;65885;55.848;35.916;2023-05-01T08:35:00;98845.66;;;9.07;54.25
76940;BME280;65885;55.848;35.916;2023-05-01T08:37:29;98846.41;;;9.09;54.09
76940;BME280;65885;55.848;35.916;2023-05-01T08:39:56;98846.19;;;9.13;53.68
76940;BME280;65885;55.848;35.916;2023-05-01T08:42:25;98855.19;;;9.27;53.59
76940;BME280;65885;55.848;35.916;2023-05-01T08:44:56;98856.91;;;9.47;52.91
76940;BME280;65885;55.848;35.916;2023-05-01T08:47:26;98859.22;;;9.71;52.79
76940;BME280;65885;55.848;35.916;2023-05-01T08:49:57;98865.84;;;9.97;51.86
76940;BME280;65885;55.848;35.916;2023-05-01T08:52:28;98860.44;;;10.18;51.30
76940;BME280;65885;55.848;35.916;2023-05-01T08:54:58;98876.00;;;10.40;50.88
76940;BME280;65885;55.848;35.916;2023-05-01T08:57:30;98881.19;;;10.59;50.25
76940;BME280;65885;55.848;35.916;2023-05-01T08:59:59;98874.22;;;10.75;50.40
76940;BME280;65885;55.848;35.916;2023-05-01T09:02:33;98883.75;;;10.93;49.43
76940;BME280;65885;55.848;35.916;2023-05-01T09:05:01;98886.91;;;11.00;49.28
76940;BME280;65885;55.848;35.916;2023-05-01T09:07:30;98878.81;;;11.04;49.19
76940;BME280;65885;55.848;35.916;2023-05-01T09:09:58;98882.88;;;11.10;49.01
76940;BME280;65885;55.848;35.916;2023-05-01T09:12:27;98888.97;;;11.10;48.47
76940;BME280;65885;55.848;35.916;2023-05-01T09:15:02;98890.50;;;11.15;48.54
76940;BME280;65885;55.848;35.916;2023-05-01T09:17:31;98887.56;;;11.21;48.18
76940;BME280;65885;55.848;35.916;2023-05-01T09:20:01;98899.59;;;11.25;48.15
76940;BME280;65885;55.848;35.916;2023-05-01T09:22:31;98908.25;;;11.27;47.75
76940;BME280;65885;55.848;35.916;2023-05-01T09:24:58;98894.28;;;11.26;47.45
76940;BME280;65885;55.848;35.916;2023-05-01T09:27:28;98914.13;;;11.15;47.04
76940;BME280;65885;55.848;35.916;2023-05-01T09:29:56;98911.63;;;10.96;47.59
76940;BME280;65885;55.848;35.916;2023-05-01T09:32:25;98921.13;;;10.81;47.86
76940;BME280;65885;55.848;35.916;2023-05-01T09:34:54;98927.91;;;10.68;48.16
76940;BME280;65885;55.848;35.916;2023-05-01T09:37:25;98927.28;;;10.63;48.76
76940;BME280;65885;55.848;35.916;2023-05-01T09:40:02;98927.00;;;10.69;48.86
76940;BME280;65885;55.848;35.916;2023-05-01T09:42:35;98929.91;;;10.80;48.55
76940;BME280;65885;55.848;35.916;2023-05-01T09:45:03;98923.56;;;11.01;48.57
76940;BME280;65885;55.848;35.916;2023-05-01T09:47:31;98929.72;;;11.18;47.97
76940;BME280;65885;55.848;35.916;2023-05-01T09:50:00;98929.41;;;11.24;47.57
76940;BME280;65885;55.848;35.916;2023-05-01T09:52:29;98928.47;;;11.25;48.18
76940;BME280;65885;55.848;35.916;2023-05-01T09:55:17;98931.34;;;11.20;47.58
76940;BME280;65885;55.848;35.916;2023-05-01T09:57:46;98931.56;;;11.16;48.06
76940;BME280;65885;55.848;35.916;2023-05-01T10:00:15;98938.44;;;11.18;47.95
76940;BME280;65885;55.848;35.916;2023-05-01T10:02:46;98937.19;;;11.25;47.28
76940;BME280;65885;55.848;35.916;2023-05-01T10:05:14;98945.75;;;11.29;46.87
76940;BME280;65885;55.848;35.916;2023-05-01T10:07:55;98939.41;;;11.33;46.82
76940;BME280;65885;55.848;35.916;2023-05-01T10:10:23;98939.19;;;11.37;47.27
76940;BME280;65885;55.848;35.916;2023-05-01T10:12:53;98944.19;;;11.42;46.91
76940;BME280;65885;55.848;35.916;2023-05-01T10:15:35;98950.03;;;11.47;47.01
76940;BME280;65885;55.848;35.916;2023-05-01T10:18:06;98951.31;;;11.56;47.11
76940;BME280;65885;55.848;35.916;2023-05-01T10:20:35;98948.81;;;11.70;47.46
76940;BME280;65885;55.848;35.916;2023-05-01T10:23:04;98951.47;;;11.86;47.01
76940;BME280;65885;55.848;35.916;2023-05-01T10:25:35;98947.94;;;12.03;46.79
76940;BME280;65885;55.848;35.916;2023-05-01T10:28:07;98952.91;;;12.23;46.73
76940;BME280;65885;55.848;35.916;2023-05-01T10:30:37;98944.75;;;12.43;46.67
76940;BME280;65885;55.848;35.916;2023-05-01T10:33:06;98951.69;;;12.60;46.45
76940;BME280;65885;55.848;35.916;2023-05-01T10:35:36;98953.59;;;12.72;45.41
76940;BME280;65885;55.848;35.916;2023-05-01T10:38:08;98944.81;;;12.88;45.63
76940;BME280;65885;55.848;35.916;2023-05-01T10:40:47;98951.53;;;13.08;45.65
76940;BME280;65885;55.848;35.916;2023-05-01T10:43:19;98953.84;;;13.28;44.87
76940;BME280;65885;55.848;35.916;2023-05-01T10:45:52;98950.19;;;13.45;45.14
76940;BME280;65885;55.848;35.916;2023-05-01T10:48:53;98946.22;;;13.66;44.52
76940;BME280;65885;55.848;35.916;2023-05-01T10:51:24;98955.06;;;13.79;43.82
76940;BME280;65885;55.848;35.916;2023-05-01T10:54:21;98948.94;;;13.93;43.85
76940;BME280;65885;55.848;35.916;2023-05-01T10:56:53;98953.63;;;14.02;43.35
76940;BME280;65885;55.848;35.916;2023-05-01T10:59:23;98955.78;;;14.10;42.55
76940;BME280;65885;55.848;35.916;2023-05-01T11:01:53;98960.09;;;14.11;42.43
76940;BME280;65885;55.848;35.916;2023-05-01T11:04:46;98956.63;;;14.10;41.96
76940;BME280;65885;55.848;35.916;2023-05-01T11:07:30;98963.88;;;14.07;40.90
76940;BME280;65885;55.848;35.916;2023-05-01T11:10:00;98964.06;;;14.04;42.15
76940;BME280;65885;55.848;35.916;2023-05-01T11:12:51;98966.16;;;13.99;42.24
76940;BME280;65885;55.848;35.916;2023-05-01T11:15:30;98959.88;;;13.87;41.68
76940;BME280;65885;55.848;35.916;2023-05-01T11:18:00;98960.06;;;13.70;41.82
76940;BME280;65885;55.848;35.916;2023-05-01T11:20:59;98962.13;;;13.65;42.85
76940;BME280;65885;55.848;35.916;2023-05-01T11:23:29;98960.34;;;13.65;43.72
76940;BME280;65885;55.848;35.916;2023-05-01T11:26:01;98957.34;;;13.71;44.01
76940;BME280;65885;55.848;35.916;2023-05-01T11:28:31;98962.28;;;13.90;45.56
76940;BME280;65885;55.848;35.916;2023-05-01T11:31:01;98970.81;;;14.22;44.92
76940;BME280;65885;55.848;35.916;2023-05-01T11:33:29;98965.91;;;14.57;44.75
76940;BME280;65885;55.848;35.916;2023-05-01T11:35:58;98965.91;;;14.84;43.60
76940;BME280;65885;55.848;35.916;2023-05-01T11:38:29;98972.19;;;15.09;42.44
76940;BME280;65885;55.848;35.916;2023-05-01T11:41:01;98969.16;;;15.27;41.97
76940;BME280;65885;55.848;35.916;2023-05-01T11:43:31;98976.09;;;15.41;41.84
76940;BME280;65885;55.848;35.916;2023-05-01T11:46:02;98970.63;;;15.44;40.22
76940;BME280;65885;55.848;35.916;2023-05-01T11:48:31;98974.72;;;15.48;42.29
76940;BME280;65885;55.848;35.916;2023-05-01T11:50:59;98968.28;;;15.52;41.01
76940;BME280;65885;55.848;35.916;2023-05-01T11:53:27;98966.84;;;15.61;42.26
76940;BME280;65885;55.848;35.916;2023-05-01T11:55:57;98968.94;;;15.69;42.01
76940;BME280;65885;55.848;35.916;2023-05-01T11:58:31;98975.69;;;15.86;41.46
76940;BME280;65885;55.848;35.916;2023-05-01T12:01:03;98977.16;;;16.02;42.18
76940;BME280;65885;55.848;35.916;2023-05-01T12:03:41;98977.75;;;16.19;40.91
76940;BME280;65885;55.848;35.916;2023-05-01T12:06:10;98983.53;;;16.24;38.13
76940;BME280;65885;55.848;35.916;2023-05-01T12:08:42;98980.03;;;16.23;37.32
76940;BME280;65885;55.848;35.916;2023-05-01T12:11:10;98983.59;;;16.11;34.69
76940;BME280;65885;55.848;35.916;2023-05-01T12:13:40;98991.53;;;15.98;34.93
76940;BME280;65885;55.848;35.916;2023-05-01T12:16:10;98990.22;;;15.80;33.38
76940;BME280;65885;55.848;35.916;2023-05-01T12:18:38;98987.97;;;15.61;33.60
76940;BME280;65885;55.848;35.916;2023-05-01T12:21:14;99001.28;;;15.47;33.84
76940;BME280;65885;55.848;35.916;2023-05-01T12:23:42;99007.94;;;15.40;33.75
76940;BME280;65885;55.848;35.916;2023-05-01T12:26:17;99008.03;;;15.38;33.74
76940;BME280;65885;55.848;35.916;2023-05-01T12:28:58;99019.78;;;15.47;34.46
76940;BME280;65885;55.848;35.916;2023-05-01T12:31:30;99021.03;;;15.54;33.09
76940;BME280;65885;55.848;35.916;2023-05-01T12:33:58;99016.31;;;15.59;33.54
76940;BME280;65885;55.848;35.916;2023-05-01T12:36:27;99020.09;;;15.55;32.44
76940;BME280;65885;55.848;35.916;2023-05-01T12:38:56;99019.16;;;15.43;32.87
76940;BME280;65885;55.848;35.916;2023-05-01T12:41:33;99020.19;;;15.41;33.55
76940;BME280;65885;55.848;35.916;2023-05-01T12:44:01;99026.31;;;15.41;33.24
76940;BME280;65885;55.848;35.916;2023-05-01T12:46:30;99024.09;;;15.48;33.03
76940;BME280;65885;55.848;35.916;2023-05-01T12:48:58;99025.72;;;15.50;32.87
76940;BME280;65885;55.848;35.916;2023-05-01T12:51:25;99033.31;;;15.55;32.95
76940;BME280;65885;55.848;35.916;2023-05-01T12:53:53;99038.47;;;15.57;32.32
76940;BME280;65885;55.848;35.916;2023-05-01T12:56:24;99047.38;;;15.55;32.11
76940;BME280;65885;55.848;35.916;2023-05-01T12:58:52;99050.00;;;15.55;32.38
76940;BME280;65885;55.848;35.916;2023-05-01T13:01:23;99041.91;;;15.59;33.14
76940;BME280;65885;55.848;35.916;2023-05-01T13:03:56;99052.06;;;15.77;32.74
76940;BME280;65885;55.848;35.916;2023-05-01T13:06:30;99048.34;;;16.05;31.91
76940;BME280;65885;55.848;35.916;2023-05-01T13:09:07;99040.34;;;16.31;31.44